createdAt,value
2019-05-18T00:03:18.034Z,95.54
2019-05-18T00:08:20.990Z,96.61
2019-05-18T00:13:23.987Z,95.64
2019-05-18T00:18:26.491Z,95.19
2019-05-18T00:23:29.381Z,95.37
2019-05-18T00:28:32.662Z,94.77
2019-05-18T00:33:35.662Z,94.12
2019-05-18T00:38:38.568Z,94.36
2019-05-18T00:43:41.919Z,94.22
2019-05-18T00:48:44.825Z,94.95
2019-05-18T00:53:47.733Z,95.07
2019-05-18T00:58:51.192Z,95.27
2019-05-18T01:03:54.818Z,95.60
2019-05-18T01:08:57.808Z,95.06
2019-05-18T01:14:00.661Z,95.37
2019-05-18T01:19:03.871Z,96.15
2019-05-18T01:24:07.076Z,96.65
2019-05-18T01:29:09.569Z,96.08
2019-05-18T01:34:12.836Z,96.74
2019-05-18T01:39:15.696Z,96.80
2019-05-18T01:44:18.903Z,96.75
2019-05-18T01:49:22.003Z,97.87
2019-05-18T01:54:25.013Z,98.69
2019-05-18T01:59:28.647Z,98.91
2019-05-18T02:04:31.676Z,98.47
2019-05-18T02:09:34.596Z,98.39
2019-05-18T02:14:37.116Z,98.88
2019-05-18T02:19:40.265Z,99.08
2019-05-18T02:24:43.631Z,98.51
2019-05-18T02:29:47.784Z,98.98
2019-05-18T02:34:51.299Z,99.43
2019-05-18T02:39:56.333Z,99.60
2019-05-18T02:44:59.309Z,99.77
2019-05-18T02:50:02.370Z,99.82
2019-05-18T02:55:06.481Z,99.92
2019-05-18T03:00:10.748Z,100.00
2019-05-18T03:05:14.434Z,100.00
2019-05-18T03:10:19.267Z,100.00
2019-05-18T03:15:22.849Z,100.00
2019-05-18T03:20:26.109Z,99.99
2019-05-18T03:25:29.623Z,100.00
2019-05-18T03:30:32.834Z,100.00
2019-05-18T03:35:36.058Z,100.00
2019-05-18T03:40:39.690Z,100.00
2019-05-18T03:45:42.242Z,100.00
2019-05-18T03:50:45.464Z,100.00
2019-05-18T03:55:47.963Z,100.00
2019-05-18T04:00:51.155Z,100.00
2019-05-18T04:05:56.665Z,100.00
2019-05-18T04:10:59.869Z,100.00
2019-05-18T04:16:02.885Z,100.00
2019-05-18T04:21:07.921Z,100.00
2019-05-18T04:26:11.092Z,100.00
2019-05-18T04:31:14.623Z,100.00
2019-05-18T04:36:17.194Z,100.00
2019-05-18T04:41:20.056Z,100.00
2019-05-18T04:46:22.900Z,100.00
2019-05-18T04:51:26.167Z,100.00
2019-05-18T04:56:29.380Z,100.00
2019-05-18T05:01:32.601Z,100.00
2019-05-18T05:06:35.537Z,99.86
2019-05-18T05:11:38.683Z,100.00
2019-05-18T05:16:41.539Z,100.00
2019-05-18T05:21:44.958Z,98.93
2019-05-18T05:26:48.234Z,98.15
2019-05-18T05:31:51.091Z,95.91
2019-05-18T05:36:53.838Z,94.95
2019-05-18T05:41:57.006Z,94.50
2019-05-18T05:47:00.342Z,94.04
2019-05-18T05:52:03.886Z,92.89
2019-05-18T05:57:07.367Z,93.74
2019-05-18T06:02:10.499Z,93.94
2019-05-18T06:07:13.709Z,93.50
2019-05-18T06:12:16.594Z,91.91
2019-05-18T06:17:21.060Z,91.58
2019-05-18T06:22:25.452Z,93.18
2019-05-18T06:27:28.451Z,93.22
2019-05-18T06:32:32.379Z,93.98
2019-05-18T06:37:35.209Z,93.61
2019-05-18T06:42:38.513Z,93.47
2019-05-18T06:47:41.728Z,92.74
2019-05-18T06:52:45.421Z,91.18
2019-05-18T06:57:49.898Z,90.88
2019-05-18T07:02:52.997Z,89.33
2019-05-18T07:07:57.646Z,88.85
2019-05-18T07:13:00.510Z,86.79
2019-05-18T07:18:03.507Z,84.86
2019-05-18T07:23:06.762Z,85.63
2019-05-18T07:28:09.912Z,85.90
2019-05-18T07:33:13.113Z,84.13
2019-05-18T07:38:16.294Z,83.53
2019-05-18T07:43:18.819Z,83.30
2019-05-18T07:48:22.380Z,82.07
2019-05-18T07:53:25.911Z,82.46
2019-05-18T07:58:28.763Z,83.36
2019-05-18T08:03:31.638Z,80.54
2019-05-18T08:08:34.796Z,80.93
2019-05-18T08:13:37.980Z,80.24
2019-05-18T08:18:41.461Z,79.42
2019-05-18T08:23:44.659Z,78.94
2019-05-18T08:28:47.136Z,80.03
2019-05-18T08:33:50.053Z,79.14
2019-05-18T08:38:52.957Z,79.24
2019-05-18T08:43:56.560Z,79.05
2019-05-18T08:48:59.801Z,79.16
2019-05-18T08:54:02.953Z,78.65
2019-05-18T08:59:05.917Z,77.89
2019-05-18T09:04:08.535Z,76.77
2019-05-18T09:09:11.461Z,75.47
2019-05-18T09:14:14.401Z,76.28
2019-05-18T09:19:17.611Z,76.51
2019-05-18T09:24:20.133Z,77.07
2019-05-18T09:29:23.512Z,75.44
2019-05-18T09:34:28.213Z,75.28
2019-05-18T09:39:35.667Z,73.97
2019-05-18T09:44:38.905Z,75.94
2019-05-18T09:49:46.824Z,73.72
2019-05-18T09:54:50.355Z,74.66
2019-05-18T09:59:53.244Z,74.52
2019-05-18T10:04:56.297Z,73.89
2019-05-18T10:10:02.127Z,70.84
2019-05-18T10:15:05.229Z,72.47
2019-05-18T10:20:10.601Z,71.82
2019-05-18T10:25:13.879Z,70.56
2019-05-18T10:30:17.067Z,70.56
2019-05-18T10:35:20.017Z,69.30
2019-05-18T10:40:22.804Z,70.17
2019-05-18T10:45:25.327Z,69.25
2019-05-18T10:50:28.698Z,69.20
2019-05-18T10:55:31.369Z,69.54
2019-05-18T11:00:35.428Z,68.75
2019-05-18T11:05:38.636Z,65.31
2019-05-18T11:10:42.233Z,63.67
2019-05-18T11:15:44.756Z,64.27
2019-05-18T11:20:47.665Z,64.40
2019-05-18T11:25:51.234Z,60.58
2019-05-18T11:30:54.729Z,59.28
2019-05-18T11:35:57.898Z,61.01
2019-05-18T11:41:02.140Z,60.86
2019-05-18T11:46:05.320Z,58.40
2019-05-18T11:51:08.242Z,60.01
2019-05-18T11:56:11.557Z,58.75
2019-05-18T12:01:14.353Z,59.95
2019-05-18T12:06:17.891Z,60.51
2019-05-18T12:11:21.408Z,58.65
2019-05-18T12:16:24.618Z,57.16
2019-05-18T12:21:27.725Z,57.71
2019-05-18T12:26:30.711Z,57.67
2019-05-18T12:31:33.400Z,58.67
2019-05-18T12:36:36.631Z,57.84
2019-05-18T12:41:39.936Z,56.55
2019-05-18T12:46:42.930Z,55.96
2019-05-18T12:51:46.360Z,57.03
2019-05-18T12:56:49.580Z,56.28
2019-05-18T13:01:53.080Z,55.58
2019-05-18T13:06:56.388Z,54.62
2019-05-18T13:11:59.606Z,57.75
2019-05-18T13:17:02.901Z,54.96
2019-05-18T13:22:06.262Z,53.78
2019-05-18T13:27:08.762Z,55.44
2019-05-18T13:32:11.666Z,55.44
2019-05-18T13:37:14.650Z,54.45
2019-05-18T13:42:18.960Z,55.77
2019-05-18T13:47:22.456Z,54.79
2019-05-18T13:52:26.001Z,54.04
2019-05-18T13:57:29.303Z,54.60
2019-05-18T14:02:32.222Z,53.03
2019-05-18T14:07:35.397Z,53.03
2019-05-18T14:12:38.315Z,52.08
2019-05-18T14:17:41.492Z,52.23
2019-05-18T14:22:44.845Z,52.37
2019-05-18T14:27:47.753Z,50.68
2019-05-18T14:32:51.019Z,52.25
2019-05-18T14:37:54.620Z,51.44
2019-05-18T14:42:57.889Z,50.90
2019-05-18T14:48:01.390Z,51.07
2019-05-18T14:53:05.073Z,50.17
2019-05-18T14:58:08.661Z,51.53
2019-05-18T15:03:11.965Z,52.68
2019-05-18T15:08:15.160Z,52.32
2019-05-18T15:13:17.669Z,51.65
2019-05-18T15:18:22.302Z,51.87
2019-05-18T15:23:25.184Z,53.10
2019-05-18T15:28:28.824Z,52.77
2019-05-18T15:33:32.235Z,52.71
2019-05-18T15:38:36.888Z,52.71
2019-05-18T15:43:40.065Z,53.04
2019-05-18T15:48:43.351Z,51.11
2019-05-18T15:53:46.290Z,51.13
2019-05-18T15:58:49.850Z,51.83
2019-05-18T16:03:53.045Z,51.76
2019-05-18T16:08:56.156Z,52.15
2019-05-18T16:13:59.704Z,51.01
2019-05-18T16:19:02.882Z,53.67
2019-05-18T16:24:05.736Z,53.70
2019-05-18T16:29:09.175Z,53.43
2019-05-18T16:34:12.402Z,53.89
2019-05-18T16:39:15.976Z,55.22
2019-05-18T16:44:19.654Z,55.36
2019-05-18T16:49:24.258Z,54.08
2019-05-18T16:54:27.801Z,54.96
2019-05-18T16:59:31.377Z,55.22
2019-05-18T17:04:34.929Z,55.92
2019-05-18T17:09:37.424Z,56.37
2019-05-18T17:14:41.295Z,56.37
2019-05-18T17:19:44.384Z,56.45
2019-05-18T17:24:47.882Z,56.10
2019-05-18T17:29:51.243Z,57.14
2019-05-18T17:34:54.624Z,57.96
2019-05-18T17:39:58.135Z,58.67
2019-05-18T17:45:01.396Z,58.86
2019-05-18T17:50:05.141Z,60.26
2019-05-18T17:55:09.078Z,60.63
2019-05-18T18:00:12.598Z,60.99
2019-05-18T18:05:15.792Z,62.32
2019-05-18T18:10:19.233Z,62.27
2019-05-18T18:15:22.489Z,63.99
2019-05-18T18:20:25.937Z,64.09
2019-05-18T18:25:29.576Z,64.32
2019-05-18T18:30:33.245Z,64.56
2019-05-18T18:35:39.579Z,64.55
2019-05-18T18:40:42.402Z,65.46
2019-05-18T18:45:46.057Z,65.65
2019-05-18T18:50:49.676Z,66.71
2019-05-18T18:55:52.666Z,66.98
2019-05-18T19:00:56.302Z,68.72
2019-05-18T19:05:59.568Z,69.38
2019-05-18T19:11:02.460Z,70.53
2019-05-18T19:16:05.376Z,71.09
2019-05-18T19:21:08.725Z,72.07
2019-05-18T19:26:11.697Z,74.03
2019-05-18T19:31:15.766Z,74.72
2019-05-18T19:36:19.130Z,74.91
2019-05-18T19:41:23.282Z,77.21
2019-05-18T19:46:26.930Z,78.47
2019-05-18T19:51:29.981Z,78.31
2019-05-18T19:56:39.525Z,78.43
2019-05-18T20:01:39.468Z,78.74
2019-05-18T20:06:42.983Z,78.88
2019-05-18T20:11:46.304Z,80.00
2019-05-18T20:16:48.974Z,79.16
2019-05-18T20:21:52.156Z,79.35
2019-05-18T20:26:55.483Z,79.51
2019-05-18T20:31:59.456Z,79.33
2019-05-18T20:37:02.461Z,79.79
2019-05-18T20:42:05.576Z,79.74
2019-05-18T20:47:08.762Z,79.92
2019-05-18T20:52:11.913Z,81.11
2019-05-18T20:57:15.243Z,82.37
2019-05-18T21:02:18.500Z,81.90
2019-05-18T21:07:21.820Z,83.29
2019-05-18T21:12:24.824Z,83.55
2019-05-18T21:17:28.190Z,82.71
2019-05-18T21:22:31.748Z,82.56
2019-05-18T21:27:34.910Z,82.79
2019-05-18T21:32:37.762Z,84.14
2019-05-18T21:37:41.271Z,85.04
2019-05-18T21:42:44.858Z,85.15
2019-05-18T21:47:48.232Z,85.70
2019-05-18T21:52:53.211Z,85.85
2019-05-18T21:57:56.116Z,86.02
2019-05-18T22:03:00.411Z,86.10
2019-05-18T22:08:03.349Z,86.98
2019-05-18T22:13:06.683Z,87.60
2019-05-18T22:18:23.612Z,87.09
2019-05-18T22:23:15.503Z,87.21
2019-05-18T22:28:18.901Z,87.69
2019-05-18T22:33:21.885Z,88.14
2019-05-18T22:38:25.451Z,88.08
2019-05-18T22:43:28.953Z,88.93
2019-05-18T22:48:41.335Z,88.73
2019-05-18T22:53:37.279Z,88.72
2019-05-18T22:58:40.213Z,89.13
2019-05-18T23:03:43.405Z,89.45
2019-05-18T23:08:46.924Z,89.42
2019-05-18T23:13:50.158Z,88.83
2019-05-18T23:18:56.924Z,88.38
2019-05-18T23:23:58.124Z,88.28
2019-05-18T23:29:01.679Z,87.67
2019-05-18T23:34:04.527Z,88.12
2019-05-18T23:39:07.446Z,87.78
2019-05-18T23:44:10.676Z,88.20
2019-05-18T23:49:13.977Z,89.93
2019-05-18T23:54:17.168Z,89.62
2019-05-18T23:59:20.068Z,89.29
